Time;durP1;ratioP1;P1;durP2;ratioP2;P2;SDS_P1;SDS_P2;PMS_P1;PMS_P2;Temp;Humidity;BMP_temperature;BMP_pressure;BME280_temperature;BME280_humidity;BME280_pressure;Samples;Min_cycle;Max_cycle;Signal;HPM_P1;HPM_P2
2023/10/15 00:00:27;;;;;;;7.53;2.87;;;;;;;;;;4997237;28;20186;-81
2023/10/15 00:02:53;;;;;;;4.70;2.30;;;;;;;;;;4997826;28;20214;-82
2023/10/15 00:05:25;;;;;;;3.97;2.00;;;;;;;;;;5003511;28;20219;-82
2023/10/15 00:07:51;;;;;;;5.83;2.20;;;;;;;;;;4992571;28;20258;-81
2023/10/15 00:10:19;;;;;;;6.67;2.57;;;;;;;;;;4998670;28;20673;-82
2023/10/15 00:12:49;;;;;;;3.40;2.20;;;;;;;;;;5009553;28;20203;-82
2023/10/15 00:15:19;;;;;;;3.27;1.60;;;;;;;;;;5005277;28;20238;-82
2023/10/15 00:17:50;;;;;;;5.47;2.47;;;;;;;;;;5009544;28;20197;-82
2023/10/15 00:20:17;;;;;;;6.37;2.70;;;;;;;;;;4989129;28;20193;-82
2023/10/15 00:22:44;;;;;;;5.53;3.10;;;;;;;;;;4990161;28;20214;-82
2023/10/15 00:25:14;;;;;;;4.83;2.80;;;;;;;;;;4996809;28;20210;-82
2023/10/15 00:27:44;;;;;;;5.40;2.50;;;;;;;;;;4997533;28;20197;-82
2023/10/15 00:30:15;;;;;;;7.10;2.70;;;;;;;;;;4995943;28;20248;-82
2023/10/15 00:32:45;;;;;;;4.77;2.10;;;;;;;;;;5018697;28;20199;-82
2023/10/15 00:35:19;;;;;;;5.83;2.40;;;;;;;;;;5015274;28;20182;-83
2023/10/15 00:37:55;;;;;;;5.67;2.17;;;;;;;;;;5011744;28;20673;-81
2023/10/15 00:40:22;;;;;;;4.73;2.30;;;;;;;;;;5032640;28;20214;-82
2023/10/15 00:42:48;;;;;;;5.53;2.50;;;;;;;;;;5011816;28;20195;-83
2023/10/15 00:45:15;;;;;;;5.27;2.00;;;;;;;;;;4994620;28;20194;-81
2023/10/15 00:47:42;;;;;;;4.20;2.10;;;;;;;;;;5031335;28;20198;-82
2023/10/15 00:50:09;;;;;;;4.27;1.97;;;;;;;;;;5005385;28;20203;-82
2023/10/15 00:52:42;;;;;;;4.40;1.80;;;;;;;;;;4990720;28;20200;-82
2023/10/15 00:55:11;;;;;;;7.57;2.33;;;;;;;;;;5010057;28;20199;-81
2023/10/15 00:57:43;;;;;;;5.03;2.10;;;;;;;;;;4983995;28;20273;-82
2023/10/15 01:00:39;;;;;;;5.93;2.10;;;;;;;;;;5007049;28;20269;-82
2023/10/15 01:03:03;;;;;;;6.70;2.40;;;;;;;;;;4998371;28;20203;-82
2023/10/15 01:05:34;;;;;;;4.83;2.53;;;;;;;;;;4979144;28;20792;-81
2023/10/15 01:08:03;;;;;;;6.13;2.37;;;;;;;;;;4970301;28;20269;-82
2023/10/15 01:10:36;;;;;;;5.57;2.10;;;;;;;;;;4986882;28;20175;-82
2023/10/15 01:13:17;;;;;;;7.13;2.10;;;;;;;;;;4989961;28;20208;-81
2023/10/15 01:15:47;;;;;;;5.33;2.40;;;;;;;;;;5015824;28;20190;-82
2023/10/15 01:18:13;;;;;;;6.03;2.27;;;;;;;;;;5008733;28;20195;-82
2023/10/15 01:20:42;;;;;;;5.73;1.93;;;;;;;;;;4995141;28;20317;-82
2023/10/15 01:23:09;;;;;;;6.93;2.03;;;;;;;;;;5011416;28;20241;-81
2023/10/15 01:25:45;;;;;;;3.93;1.97;;;;;;;;;;4977201;28;20214;-83
2023/10/15 01:28:12;;;;;;;4.20;2.10;;;;;;;;;;4998980;28;20205;-82
2023/10/15 01:30:41;;;;;;;4.63;2.00;;;;;;;;;;5000252;28;20206;-82
2023/10/15 01:33:10;;;;;;;4.90;2.00;;;;;;;;;;4997709;28;20198;-82
2023/10/15 01:35:38;;;;;;;2.90;1.83;;;;;;;;;;4997273;28;20242;-81
2023/10/15 01:38:10;;;;;;;5.77;2.20;;;;;;;;;;5028273;28;20183;-82
2023/10/15 01:40:40;;;;;;;4.87;2.20;;;;;;;;;;5012225;28;20273;-82
2023/10/15 01:43:12;;;;;;;3.80;2.10;;;;;;;;;;4979370;28;20277;-82
2023/10/15 01:45:40;;;;;;;7.37;2.67;;;;;;;;;;4979915;28;20214;-82
2023/10/15 01:48:13;;;;;;;5.70;2.40;;;;;;;;;;4971860;28;20186;-82
2023/10/15 01:50:50;;;;;;;4.90;2.10;;;;;;;;;;4995873;28;20193;-82
2023/10/15 01:53:16;;;;;;;6.43;2.87;;;;;;;;;;4981382;28;20625;-82
2023/10/15 01:55:55;;;;;;;5.30;2.50;;;;;;;;;;4995478;28;20655;-82
2023/10/15 01:58:31;;;;;;;6.67;2.33;;;;;;;;;;4994702;28;20194;-82
2023/10/15 02:01:09;;;;;;;5.70;2.40;;;;;;;;;;5011983;28;20186;-82
2023/10/15 02:03:39;;;;;;;5.97;2.60;;;;;;;;;;5032494;28;20554;-82
2023/10/15 02:06:06;;;;;;;6.37;2.63;;;;;;;;;;4998549;28;20230;-83
2023/10/15 02:08:33;;;;;;;6.13;2.43;;;;;;;;;;4977319;28;20179;-82
2023/10/15 02:11:05;;;;;;;5.37;1.87;;;;;;;;;;5009883;28;20183;-82
2023/10/15 02:13:35;;;;;;;5.53;2.10;;;;;;;;;;4975867;28;20191;-82
2023/10/15 02:16:08;;;;;;;6.70;2.10;;;;;;;;;;5012199;28;20713;-81
2023/10/15 02:18:35;;;;;;;5.20;2.13;;;;;;;;;;4978135;28;20187;-82
2023/10/15 02:21:01;;;;;;;5.47;2.00;;;;;;;;;;5027968;28;20187;-82
2023/10/15 02:23:32;;;;;;;4.80;2.00;;;;;;;;;;4993577;28;20229;-82
2023/10/15 02:25:59;;;;;;;3.53;1.73;;;;;;;;;;5012300;28;20213;-82
2023/10/15 02:28:27;;;;;;;4.93;2.17;;;;;;;;;;5014659;28;20178;-82
2023/10/15 02:31:20;;;;;;;5.07;1.90;;;;;;;;;;5014234;28;20238;-81
2023/10/15 02:33:46;;;;;;;3.63;2.00;;;;;;;;;;4992799;28;20278;-83
2023/10/15 02:36:16;;;;;;;6.10;1.90;;;;;;;;;;5009334;28;20190;-81
2023/10/15 02:38:58;;;;;;;5.90;2.17;;;;;;;;;;4998278;28;20202;-82
2023/10/15 02:41:31;;;;;;;4.67;1.73;;;;;;;;;;4981497;28;20206;-82
2023/10/15 02:43:57;;;;;;;4.40;1.80;;;;;;;;;;4986905;28;20274;-82
2023/10/15 02:46:35;;;;;;;8.50;2.30;;;;;;;;;;5007654;28;20225;-82
2023/10/15 02:49:03;;;;;;;4.00;2.00;;;;;;;;;;4996486;28;20189;-81
2023/10/15 02:51:35;;;;;;;4.37;2.00;;;;;;;;;;5007112;28;20709;-82
2023/10/15 02:54:09;;;;;;;3.87;2.07;;;;;;;;;;5008462;28;20612;-82
2023/10/15 02:56:36;;;;;;;5.00;2.40;;;;;;;;;;4998262;28;20188;-82
2023/10/15 02:59:02;;;;;;;5.33;2.10;;;;;;;;;;5012248;28;20190;-82
2023/10/15 03:01:28;;;;;;;4.30;2.10;;;;;;;;;;5004864;28;20206;-82
2023/10/15 03:03:55;;;;;;;5.03;2.70;;;;;;;;;;4995344;28;20582;-82
2023/10/15 03:06:28;;;;;;;6.63;2.67;;;;;;;;;;5013139;28;20207;-82
2023/10/15 03:08:56;;;;;;;6.50;3.00;;;;;;;;;;4997014;28;20281;-82
2023/10/15 03:11:23;;;;;;;5.90;2.97;;;;;;;;;;4990195;28;20214;-82
2023/10/15 03:13:53;;;;;;;4.83;2.60;;;;;;;;;;4997008;28;20198;-82
2023/10/15 03:16:21;;;;;;;4.63;2.50;;;;;;;;;;4978419;28;20194;-83
2023/10/15 03:18:48;;;;;;;5.03;2.30;;;;;;;;;;4996034;28;20245;-82
2023/10/15 03:21:25;;;;;;;7.83;3.20;;;;;;;;;;4980475;28;20194;-81
2023/10/15 03:23:58;;;;;;;4.93;2.70;;;;;;;;;;4974655;28;20237;-81
2023/10/15 03:26:32;;;;;;;6.67;2.67;;;;;;;;;;5008200;28;20237;-82
2023/10/15 03:28:58;;;;;;;4.90;2.50;;;;;;;;;;5008853;28;20241;-82
2023/10/15 03:31:27;;;;;;;6.30;2.33;;;;;;;;;;5008709;28;20267;-82
2023/10/15 03:34:12;;;;;;;5.87;2.43;;;;;;;;;;5008833;28;20189;-81
2023/10/15 03:36:57;;;;;;;4.53;2.00;;;;;;;;;;4992564;28;20187;-82
2023/10/15 03:40:11;;;;;;;3.87;2.20;;;;;;;;;;4987911;28;20765;-82
2023/10/15 03:44:49;;;;;;;6.50;2.40;;;;;;;;;;5017467;28;20198;-82
2023/10/15 03:47:24;;;;;;;5.43;2.37;;;;;;;;;;4986159;28;20289;-82
2023/10/15 03:49:55;;;;;;;5.80;2.37;;;;;;;;;;5003015;28;20201;-82
2023/10/15 03:52:21;;;;;;;5.50;2.40;;;;;;;;;;5011300;28;20199;-82
2023/10/15 03:54:48;;;;;;;4.87;2.30;;;;;;;;;;5004419;28;20817;-82
2023/10/15 03:57:17;;;;;;;5.43;2.13;;;;;;;;;;5014542;28;20628;-81
2023/10/15 03:59:45;;;;;;;4.50;2.30;;;;;;;;;;5023792;28;20195;-82
2023/10/15 04:02:14;;;;;;;3.93;2.30;;;;;;;;;;4995150;28;20269;-82
2023/10/15 04:04:40;;;;;;;3.70;1.87;;;;;;;;;;5006558;28;20186;-82
2023/10/15 04:07:19;;;;;;;2.93;2.10;;;;;;;;;;4996412;28;20237;-83
2023/10/15 04:09:45;;;;;;;3.97;1.93;;;;;;;;;;5006590;28;20286;-82
2023/10/15 04:12:12;;;;;;;4.23;1.90;;;;;;;;;;4996760;28;20206;-82
2023/10/15 04:14:43;;;;;;;3.87;2.03;;;;;;;;;;5014808;28;20197;-82
2023/10/15 04:17:09;;;;;;;4.07;1.90;;;;;;;;;;5017389;28;20194;-82
2023/10/15 04:19:36;;;;;;;3.33;2.10;;;;;;;;;;5013217;28;20194;-82
2023/10/15 04:22:20;;;;;;;4.80;2.27;;;;;;;;;;5004386;28;20298;-81
2023/10/15 04:24:50;;;;;;;4.23;2.30;;;;;;;;;;4979611;28;20201;-81
2023/10/15 04:27:18;;;;;;;6.50;2.70;;;;;;;;;;5026731;28;20215;-82
2023/10/15 04:29:50;;;;;;;4.67;2.40;;;;;;;;;;5029121;28;20639;-82
2023/10/15 04:32:23;;;;;;;4.73;2.40;;;;;;;;;;5006210;28;20242;-81
2023/10/15 04:34:52;;;;;;;4.67;2.37;;;;;;;;;;5023891;28;20186;-82
2023/10/15 04:37:20;;;;;;;7.17;2.57;;;;;;;;;;5006863;28;20904;-82
2023/10/15 04:39:54;;;;;;;5.37;2.23;;;;;;;;;;4995630;28;20201;-82
2023/10/15 04:42:24;;;;;;;4.87;2.50;;;;;;;;;;5034925;28;20694;-82
2023/10/15 04:44:50;;;;;;;5.93;2.30;;;;;;;;;;5016362;28;20213;-82
2023/10/15 04:47:27;;;;;;;5.80;2.60;;;;;;;;;;4999647;28;20289;-81
2023/10/15 04:49:57;;;;;;;6.07;2.50;;;;;;;;;;5017472;28;20188;-82
2023/10/15 04:52:24;;;;;;;6.37;2.90;;;;;;;;;;5016573;28;20214;-82
2023/10/15 04:54:51;;;;;;;5.93;2.50;;;;;;;;;;5000674;28;20196;-82
2023/10/15 04:57:17;;;;;;;11.67;4.47;;;;;;;;;;5016712;28;20244;-82
2023/10/15 04:59:43;;;;;;;13.00;5.00;;;;;;;;;;5001229;28;20202;-82
2023/10/15 05:02:09;;;;;;;8.07;3.43;;;;;;;;;;5034261;28;20217;-82
2023/10/15 05:04:36;;;;;;;5.97;2.60;;;;;;;;;;5003121;28;20211;-81
2023/10/15 05:07:02;;;;;;;4.97;2.53;;;;;;;;;;5015267;28;20202;-82
2023/10/15 05:09:31;;;;;;;4.17;2.07;;;;;;;;;;5033259;28;20554;-82
2023/10/15 05:12:00;;;;;;;7.03;3.40;;;;;;;;;;5018558;28;20191;-81
2023/10/15 05:14:26;;;;;;;5.93;2.57;;;;;;;;;;5017801;28;20236;-82
2023/10/15 05:16:52;;;;;;;4.43;2.33;;;;;;;;;;4995878;28;20280;-82
2023/10/15 05:19:19;;;;;;;7.70;3.00;;;;;;;;;;5033661;28;20729;-82
2023/10/15 05:21:49;;;;;;;5.27;2.50;;;;;;;;;;5017520;28;20206;-81
2023/10/15 05:24:18;;;;;;;4.77;2.40;;;;;;;;;;5001027;28;20206;-81
2023/10/15 05:26:46;;;;;;;6.47;2.50;;;;;;;;;;5016264;28;20268;-82
2023/10/15 05:29:13;;;;;;;3.30;2.17;;;;;;;;;;5033974;28;20182;-82
2023/10/15 05:31:40;;;;;;;4.77;2.37;;;;;;;;;;5028140;28;20202;-83
2023/10/15 05:34:07;;;;;;;4.03;2.27;;;;;;;;;;5015887;28;20558;-81
2023/10/15 05:36:37;;;;;;;3.53;2.03;;;;;;;;;;5007337;28;20178;-81
2023/10/15 05:39:04;;;;;;;5.00;2.40;;;;;;;;;;4999240;28;20187;-81
2023/10/15 05:41:32;;;;;;;5.40;2.30;;;;;;;;;;5004195;28;20199;-80
2023/10/15 05:43:58;;;;;;;4.67;2.40;;;;;;;;;;4996158;28;20203;-81
2023/10/15 05:46:25;;;;;;;5.00;2.37;;;;;;;;;;5003101;28;20207;-81
2023/10/15 05:48:51;;;;;;;3.93;2.07;;;;;;;;;;5011230;28;20174;-81
2023/10/15 05:51:17;;;;;;;5.00;2.50;;;;;;;;;;5034162;28;20179;-81
2023/10/15 05:53:44;;;;;;;3.73;2.13;;;;;;;;;;5009888;28;20186;-81
2023/10/15 05:56:10;;;;;;;5.43;2.80;;;;;;;;;;5012408;28;20214;-81
2023/10/15 05:58:36;;;;;;;4.40;2.47;;;;;;;;;;5002533;28;20594;-81
2023/10/15 06:01:03;;;;;;;4.33;2.47;;;;;;;;;;4997469;28;20187;-81
2023/10/15 06:03:30;;;;;;;3.90;2.50;;;;;;;;;;4997071;28;20202;-81
2023/10/15 06:05:59;;;;;;;6.00;2.77;;;;;;;;;;5022802;28;20215;-81
2023/10/15 06:08:28;;;;;;;6.23;2.90;;;;;;;;;;5014797;28;20191;-81
2023/10/15 06:10:54;;;;;;;4.83;3.07;;;;;;;;;;5014050;28;20869;-81
2023/10/15 06:13:20;;;;;;;6.03;3.00;;;;;;;;;;5013894;28;20269;-81
2023/10/15 06:15:48;;;;;;;6.90;2.90;;;;;;;;;;4997506;28;20203;-80
2023/10/15 06:18:15;;;;;;;5.23;3.10;;;;;;;;;;5022014;28;20266;-80
2023/10/15 06:20:41;;;;;;;6.27;2.77;;;;;;;;;;5014602;28;20593;-81
2023/10/15 06:23:08;;;;;;;5.57;2.70;;;;;;;;;;5029891;28;20209;-81
2023/10/15 06:25:38;;;;;;;5.37;2.60;;;;;;;;;;5028695;28;20621;-81
2023/10/15 06:28:05;;;;;;;5.80;2.93;;;;;;;;;;5010859;28;20175;-80
2023/10/15 06:30:31;;;;;;;5.23;2.50;;;;;;;;;;4989650;28;20210;-81
2023/10/15 06:32:58;;;;;;;9.27;3.03;;;;;;;;;;5018031;28;20195;-82
2023/10/15 06:35:27;;;;;;;7.07;3.10;;;;;;;;;;5001155;28;20210;-79
2023/10/15 06:37:58;;;;;;;9.00;3.13;;;;;;;;;;4996688;28;20654;-81
2023/10/15 06:40:25;;;;;;;6.07;3.07;;;;;;;;;;5016737;28;20257;-81
2023/10/15 06:42:52;;;;;;;5.77;3.67;;;;;;;;;;4986817;28;20250;-80
2023/10/15 06:45:21;;;;;;;7.40;3.60;;;;;;;;;;4985414;28;20340;-81
2023/10/15 06:47:49;;;;;;;8.50;3.73;;;;;;;;;;5004273;28;20230;-81
2023/10/15 06:50:16;;;;;;;7.43;3.50;;;;;;;;;;5019068;28;20171;-81
2023/10/15 06:52:42;;;;;;;6.73;3.43;;;;;;;;;;5026783;28;20207;-81
2023/10/15 06:55:13;;;;;;;5.63;3.23;;;;;;;;;;5003017;28;20206;-81
2023/10/15 06:57:40;;;;;;;6.33;3.30;;;;;;;;;;5001222;28;20361;-80
2023/10/15 07:00:12;;;;;;;6.07;3.40;;;;;;;;;;5019218;28;20191;-81
2023/10/15 07:02:39;;;;;;;7.80;3.60;;;;;;;;;;5014979;28;20209;-81
2023/10/15 07:05:05;;;;;;;7.03;3.60;;;;;;;;;;4987950;28;20175;-81
2023/10/15 07:07:33;;;;;;;8.47;3.47;;;;;;;;;;4983548;28;20313;-82
2023/10/15 07:10:01;;;;;;;9.10;3.60;;;;;;;;;;5000250;28;20264;-81
2023/10/15 07:12:27;;;;;;;5.80;3.10;;;;;;;;;;4998979;28;20298;-81
2023/10/15 07:14:53;;;;;;;7.07;3.30;;;;;;;;;;5005523;28;20194;-81
2023/10/15 07:17:19;;;;;;;7.53;3.27;;;;;;;;;;4988727;28;20230;-81
2023/10/15 07:19:45;;;;;;;6.63;3.43;;;;;;;;;;5021910;28;20179;-81
2023/10/15 07:22:11;;;;;;;8.00;3.00;;;;;;;;;;4972873;28;20210;-82
2023/10/15 07:24:38;;;;;;;8.83;2.93;;;;;;;;;;4999631;28;20191;-81
2023/10/15 07:27:04;;;;;;;7.60;2.60;;;;;;;;;;5015830;28;20311;-81
2023/10/15 07:29:31;;;;;;;5.63;2.37;;;;;;;;;;5001527;28;20633;-82
2023/10/15 07:31:58;;;;;;;5.63;2.70;;;;;;;;;;4988558;28;20578;-86
2023/10/15 07:34:26;;;;;;;7.67;3.03;;;;;;;;;;4982799;28;20233;-83
2023/10/15 07:36:56;;;;;;;6.17;2.30;;;;;;;;;;4987158;28;20206;-83
2023/10/15 07:39:28;;;;;;;6.50;2.60;;;;;;;;;;5017264;28;20191;-82
2023/10/15 07:41:54;;;;;;;8.03;2.83;;;;;;;;;;4984622;28;20210;-82
2023/10/15 07:44:21;;;;;;;4.80;2.40;;;;;;;;;;4988350;28;20203;-82
2023/10/15 07:46:52;;;;;;;5.40;2.43;;;;;;;;;;4992629;28;20217;-82
2023/10/15 07:49:19;;;;;;;7.00;3.00;;;;;;;;;;4988215;28;20202;-82
2023/10/15 07:51:47;;;;;;;7.83;3.03;;;;;;;;;;5017664;28;20680;-83
2023/10/15 07:54:14;;;;;;;8.47;2.90;;;;;;;;;;5024008;28;20209;-82
2023/10/15 07:56:40;;;;;;;6.37;2.97;;;;;;;;;;5022642;28;20197;-82
2023/10/15 07:59:08;;;;;;;6.63;2.60;;;;;;;;;;5028990;28;20189;-82
2023/10/15 08:01:36;;;;;;;6.30;2.60;;;;;;;;;;5016918;28;20603;-82
2023/10/15 08:04:03;;;;;;;5.20;2.60;;;;;;;;;;5021392;28;20179;-82
2023/10/15 08:06:29;;;;;;;6.47;3.07;;;;;;;;;;5002395;28;20230;-82
2023/10/15 08:08:55;;;;;;;7.73;3.13;;;;;;;;;;5005310;28;20185;-82
2023/10/15 08:11:22;;;;;;;11.93;3.20;;;;;;;;;;4972662;28;20576;-82
2023/10/15 08:13:48;;;;;;;8.27;2.93;;;;;;;;;;5002065;28;20175;-82
2023/10/15 08:16:15;;;;;;;6.70;2.80;;;;;;;;;;5021965;28;20266;-82
2023/10/15 08:18:42;;;;;;;5.33;2.83;;;;;;;;;;5009282;28;20189;-82
2023/10/15 08:21:11;;;;;;;7.83;2.50;;;;;;;;;;4985956;28;20199;-83
2023/10/15 08:23:40;;;;;;;8.37;3.10;;;;;;;;;;5014920;28;20761;-82
2023/10/15 08:26:06;;;;;;;5.30;2.30;;;;;;;;;;5001898;28;21128;-81
2023/10/15 08:28:33;;;;;;;5.87;2.37;;;;;;;;;;5001567;28;20187;-82
2023/10/15 08:31:00;;;;;;;6.80;2.67;;;;;;;;;;4985930;28;20213;-82
2023/10/15 08:33:26;;;;;;;5.50;2.30;;;;;;;;;;4985486;28;21055;-82
2023/10/15 08:35:52;;;;;;;6.83;2.83;;;;;;;;;;5025775;28;20176;-82
2023/10/15 08:38:18;;;;;;;8.30;3.23;;;;;;;;;;4989487;28;20244;-82
2023/10/15 08:40:45;;;;;;;8.03;3.00;;;;;;;;;;5020804;28;20213;-82
2023/10/15 08:43:16;;;;;;;6.10;2.33;;;;;;;;;;5022062;28;20217;-83
2023/10/15 08:45:45;;;;;;;4.97;2.50;;;;;;;;;;4988467;28;20704;-83
2023/10/15 08:48:14;;;;;;;5.47;2.80;;;;;;;;;;5019355;28;20240;-82
2023/10/15 08:50:41;;;;;;;7.47;2.80;;;;;;;;;;4988742;28;20196;-83
2023/10/15 08:53:08;;;;;;;4.87;2.20;;;;;;;;;;5021851;28;20202;-83
2023/10/15 08:55:36;;;;;;;5.47;1.93;;;;;;;;;;4990348;28;20190;-82
2023/10/15 08:58:06;;;;;;;6.00;2.00;;;;;;;;;;5005908;28;20175;-82
2023/10/15 09:00:36;;;;;;;6.93;2.03;;;;;;;;;;5020755;28;20225;-82
2023/10/15 09:03:03;;;;;;;5.30;2.10;;;;;;;;;;5005931;28;20231;-81
2023/10/15 09:05:37;;;;;;;5.20;2.37;;;;;;;;;;5024110;28;20542;-82
2023/10/15 09:08:07;;;;;;;3.83;1.67;;;;;;;;;;5007040;28;20252;-82
2023/10/15 09:10:41;;;;;;;4.47;1.63;;;;;;;;;;5009419;28;20591;-82
2023/10/15 09:13:14;;;;;;;3.37;1.43;;;;;;;;;;4990803;28;20202;-82
2023/10/15 09:15:45;;;;;;;4.00;1.53;;;;;;;;;;4981847;28;20179;-82
2023/10/15 09:18:15;;;;;;;5.20;1.67;;;;;;;;;;5025355;28;20187;-83
2023/10/15 09:20:44;;;;;;;5.07;1.67;;;;;;;;;;5023790;28;20584;-82
2023/10/15 09:23:10;;;;;;;4.20;1.80;;;;;;;;;;5028159;28;20210;-82
2023/10/15 09:25:37;;;;;;;5.23;1.77;;;;;;;;;;5007261;28;20721;-83
2023/10/15 09:28:05;;;;;;;5.70;2.10;;;;;;;;;;5009052;28;20176;-81
2023/10/15 09:30:31;;;;;;;5.47;1.67;;;;;;;;;;5008613;28;20179;-82
2023/10/15 09:32:57;;;;;;;6.13;2.00;;;;;;;;;;4992578;28;20203;-82
2023/10/15 09:35:23;;;;;;;3.73;1.53;;;;;;;;;;4993864;28;20195;-82
2023/10/15 09:37:50;;;;;;;4.07;1.70;;;;;;;;;;5007058;28;20269;-82
2023/10/15 09:40:20;;;;;;;3.80;1.67;;;;;;;;;;5011155;28;20186;-82
2023/10/15 09:42:53;;;;;;;2.80;1.40;;;;;;;;;;5009291;28;20213;-82
2023/10/15 09:45:23;;;;;;;3.07;1.50;;;;;;;;;;4988057;28;20203;-82
2023/10/15 09:47:52;;;;;;;3.47;1.20;;;;;;;;;;4989263;28;20191;-82
2023/10/15 09:50:25;;;;;;;3.77;1.40;;;;;;;;;;5002681;28;20214;-82
2023/10/15 09:53:00;;;;;;;4.13;1.33;;;;;;;;;;5001958;28;20541;-82
2023/10/15 09:55:32;;;;;;;3.77;1.47;;;;;;;;;;5021634;28;20179;-82
2023/10/15 09:58:01;;;;;;;3.07;1.60;;;;;;;;;;5025648;28;20179;-82
2023/10/15 10:00:46;;;;;;;6.53;1.30;;;;;;;;;;4977496;28;20179;-82
2023/10/15 10:03:31;;;;;;;4.43;1.40;;;;;;;;;;5023256;28;20284;-82
2023/10/15 10:06:09;;;;;;;3.87;1.50;;;;;;;;;;5003285;28;20723;-82
2023/10/15 10:08:50;;;;;;;3.47;1.30;;;;;;;;;;5025808;28;20209;-82
2023/10/15 10:11:16;;;;;;;3.67;1.20;;;;;;;;;;5004243;28;20265;-82
2023/10/15 10:13:51;;;;;;;4.67;1.60;;;;;;;;;;5024095;28;20194;-81
2023/10/15 10:16:26;;;;;;;3.73;1.30;;;;;;;;;;4992400;28;20206;-82
2023/10/15 10:18:53;;;;;;;2.73;1.30;;;;;;;;;;4986316;28;20265;-81
2023/10/15 10:21:20;;;;;;;4.07;1.23;;;;;;;;;;5006632;28;20282;-82
2023/10/15 10:23:50;;;;;;;3.50;1.03;;;;;;;;;;5025702;28;20182;-82
2023/10/15 10:26:19;;;;;;;4.17;1.40;;;;;;;;;;4988761;28;20284;-82
2023/10/15 10:28:46;;;;;;;1.40;0.93;;;;;;;;;;4992226;28;20241;-82
2023/10/15 10:31:13;;;;;;;1.97;1.20;;;;;;;;;;5023065;28;20186;-82
2023/10/15 10:33:40;;;;;;;2.63;1.17;;;;;;;;;;5007168;28;20805;-81
2023/10/15 10:36:19;;;;;;;3.70;1.30;;;;;;;;;;4991183;28;20547;-81
2023/10/15 10:39:00;;;;;;;3.53;1.30;;;;;;;;;;4990992;28;20190;-81
2023/10/15 10:41:37;;;;;;;3.13;1.20;;;;;;;;;;4990299;28;20217;-81
2023/10/15 10:44:07;;;;;;;3.60;1.40;;;;;;;;;;4992996;28;20209;-80
2023/10/15 10:46:45;;;;;;;2.53;1.00;;;;;;;;;;5001940;28;20621;-83
2023/10/15 10:49:17;;;;;;;2.80;1.33;;;;;;;;;;4990117;28;20659;-82
2023/10/15 10:51:43;;;;;;;2.97;1.27;;;;;;;;;;5010219;28;20554;-82
2023/10/15 10:54:09;;;;;;;2.23;1.10;;;;;;;;;;5020450;28;20191;-84
2023/10/15 10:56:39;;;;;;;3.53;1.30;;;;;;;;;;5025134;28;20190;-83
2023/10/15 10:59:08;;;;;;;3.13;1.20;;;;;;;;;;4986955;28;20214;-84
2023/10/15 11:01:39;;;;;;;4.63;1.40;;;;;;;;;;5018204;28;20269;-83
2023/10/15 11:04:08;;;;;;;3.00;1.30;;;;;;;;;;5022217;28;20195;-82
2023/10/15 11:06:36;;;;;;;6.60;1.50;;;;;;;;;;4987761;28;20202;-81
2023/10/15 11:09:22;;;;;;;2.47;1.23;;;;;;;;;;5021253;28;20680;-80
2023/10/15 11:11:56;;;;;;;4.53;1.23;;;;;;;;;;5005984;28;20194;-79
2023/10/15 11:14:23;;;;;;;3.63;1.37;;;;;;;;;;5003972;28;20182;-81
2023/10/15 11:16:50;;;;;;;2.57;1.20;;;;;;;;;;5018887;28;20550;-82
2023/10/15 11:19:23;;;;;;;2.10;1.20;;;;;;;;;;5000370;28;20205;-81
2023/10/15 11:21:51;;;;;;;3.67;1.30;;;;;;;;;;5000636;28;20215;-80
2023/10/15 11:24:18;;;;;;;2.10;1.30;;;;;;;;;;4971332;28;20194;-82
2023/10/15 11:26:44;;;;;;;3.10;1.30;;;;;;;;;;4988862;28;20250;-82
2023/10/15 11:29:11;;;;;;;2.77;1.53;;;;;;;;;;4996329;28;20301;-81
2023/10/15 11:31:38;;;;;;;1.80;1.20;;;;;;;;;;5022771;28;20206;-83
2023/10/15 11:34:05;;;;;;;3.73;1.30;;;;;;;;;;5002986;28;20269;-82
2023/10/15 11:36:35;;;;;;;3.17;1.03;;;;;;;;;;5001257;28;20652;-83
2023/10/15 11:39:08;;;;;;;2.70;1.20;;;;;;;;;;5019427;28;20194;-86
2023/10/15 11:41:36;;;;;;;2.70;1.20;;;;;;;;;;4985984;28;20809;-88
2023/10/15 11:44:08;;;;;;;4.63;1.27;;;;;;;;;;4972868;28;20199;-86
2023/10/15 11:46:40;;;;;;;1.33;1.00;;;;;;;;;;4985483;28;20210;-85
2023/10/15 11:49:06;;;;;;;4.10;1.20;;;;;;;;;;4986802;28;20185;-85
2023/10/15 11:51:32;;;;;;;1.93;0.90;;;;;;;;;;4989027;28;20769;-87
2023/10/15 11:54:02;;;;;;;3.80;1.10;;;;;;;;;;4990007;28;20577;-86
2023/10/15 11:56:31;;;;;;;2.60;1.10;;;;;;;;;;5003643;28;20182;-85
2023/10/15 11:59:00;;;;;;;3.30;1.00;;;;;;;;;;5004714;28;20183;-85
2023/10/15 12:01:26;;;;;;;1.53;1.00;;;;;;;;;;4988562;28;20590;-86
2023/10/15 12:04:00;;;;;;;1.40;0.90;;;;;;;;;;4984407;28;20179;-87
2023/10/15 12:06:26;;;;;;;2.37;1.10;;;;;;;;;;5004542;28;20199;-86
2023/10/15 12:08:53;;;;;;;2.40;1.00;;;;;;;;;;4984157;28;20803;-86
2023/10/15 12:11:19;;;;;;;2.90;0.90;;;;;;;;;;4987275;28;20202;-86
2023/10/15 12:13:47;;;;;;;2.93;0.90;;;;;;;;;;5006489;28;20269;-85
2023/10/15 12:16:14;;;;;;;2.93;1.20;;;;;;;;;;4986963;28;20179;-85
2023/10/15 12:18:40;;;;;;;3.93;0.97;;;;;;;;;;4970286;28;20910;-87
2023/10/15 12:21:06;;;;;;;1.63;0.73;;;;;;;;;;5004647;28;20187;-86
2023/10/15 12:23:33;;;;;;;2.07;1.00;;;;;;;;;;5007032;28;20191;-85
2023/10/15 12:26:00;;;;;;;3.70;1.30;;;;;;;;;;5005085;28;20214;-86
2023/10/15 12:28:27;;;;;;;2.50;1.00;;;;;;;;;;4973426;28;20202;-85
2023/10/15 12:30:54;;;;;;;2.13;1.10;;;;;;;;;;4988397;28;20556;-89
2023/10/15 12:33:21;;;;;;;5.27;1.40;;;;;;;;;;4993934;28;20288;-85
2023/10/15 12:35:50;;;;;;;1.73;1.30;;;;;;;;;;5024407;28;20724;-86
2023/10/15 12:38:20;;;;;;;3.60;1.43;;;;;;;;;;4989442;28;20194;-85
2023/10/15 12:40:48;;;;;;;1.53;1.10;;;;;;;;;;4993590;28;20186;-85
2023/10/15 12:43:17;;;;;;;2.00;1.03;;;;;;;;;;4991775;28;20222;-85
2023/10/15 12:45:44;;;;;;;3.67;1.17;;;;;;;;;;5009403;28;20213;-84
2023/10/15 12:48:11;;;;;;;2.63;1.10;;;;;;;;;;5011345;28;20198;-85
2023/10/15 12:50:37;;;;;;;1.67;1.00;;;;;;;;;;5010303;28;20186;-85
2023/10/15 12:53:04;;;;;;;3.63;1.00;;;;;;;;;;4992554;28;20217;-86
2023/10/15 12:55:30;;;;;;;0.90;0.77;;;;;;;;;;5011059;28;20218;-85
2023/10/15 12:57:57;;;;;;;1.70;0.80;;;;;;;;;;5007517;28;20189;-87
2023/10/15 13:00:26;;;;;;;1.23;0.90;;;;;;;;;;4990288;28;20842;-84
2023/10/15 13:02:53;;;;;;;1.63;0.80;;;;;;;;;;5027980;28;20217;-85
2023/10/15 13:05:21;;;;;;;3.17;1.23;;;;;;;;;;4987615;28;20191;-85
2023/10/15 13:07:49;;;;;;;2.37;1.00;;;;;;;;;;5024801;28;20321;-85
2023/10/15 13:10:17;;;;;;;6.67;1.00;;;;;;;;;;4988153;28;20313;-85
2023/10/15 13:12:46;;;;;;;3.47;1.20;;;;;;;;;;5003539;28;20674;-83
2023/10/15 13:15:17;;;;;;;1.50;0.90;;;;;;;;;;5009421;28;20211;-85
2023/10/15 13:17:44;;;;;;;1.07;0.80;;;;;;;;;;5025465;28;20180;-85
2023/10/15 13:20:11;;;;;;;0.70;0.70;;;;;;;;;;5012071;28;20573;-86
2023/10/15 13:22:42;;;;;;;1.70;1.00;;;;;;;;;;4993442;28;20272;-84
2023/10/15 13:25:08;;;;;;;1.67;0.87;;;;;;;;;;5025544;28;20191;-80
2023/10/15 13:27:35;;;;;;;1.97;0.97;;;;;;;;;;5009383;28;20301;-85
2023/10/15 13:30:01;;;;;;;1.37;0.97;;;;;;;;;;5002878;28;20191;-83
2023/10/15 13:32:28;;;;;;;1.53;0.80;;;;;;;;;;4972830;28;20207;-82
2023/10/15 13:34:54;;;;;;;1.53;0.90;;;;;;;;;;5010187;28;20241;-87
2023/10/15 13:37:21;;;;;;;2.37;1.10;;;;;;;;;;4991522;28;20194;-87
2023/10/15 13:39:49;;;;;;;1.93;1.30;;;;;;;;;;4986617;28;20655;-85
2023/10/15 13:42:16;;;;;;;1.83;1.00;;;;;;;;;;5004438;28;20202;-86
2023/10/15 13:44:42;;;;;;;3.53;1.00;;;;;;;;;;4973841;28;20196;-87
2023/10/15 13:47:10;;;;;;;1.87;0.93;;;;;;;;;;4982760;28;20208;-86
2023/10/15 13:49:36;;;;;;;2.03;1.03;;;;;;;;;;5027031;28;20202;-83
2023/10/15 13:52:06;;;;;;;4.30;1.00;;;;;;;;;;4990937;28;20683;-82
2023/10/15 13:54:33;;;;;;;1.77;1.07;;;;;;;;;;5012168;28;20202;-82
2023/10/15 13:56:59;;;;;;;2.67;1.23;;;;;;;;;;5019943;28;20187;-83
2023/10/15 13:59:25;;;;;;;2.20;1.10;;;;;;;;;;5004039;28;20534;-80
2023/10/15 14:01:52;;;;;;;2.33;1.10;;;;;;;;;;5004988;28;20198;-81
2023/10/15 14:04:18;;;;;;;1.23;1.00;;;;;;;;;;4999707;28;20196;-80
2023/10/15 14:06:44;;;;;;;2.30;1.20;;;;;;;;;;5018096;28;20264;-80
2023/10/15 14:09:14;;;;;;;1.20;0.93;;;;;;;;;;5018934;28;20190;-80
2023/10/15 14:11:43;;;;;;;1.10;1.00;;;;;;;;;;4982216;28;20202;-80
2023/10/15 14:14:10;;;;;;;2.03;1.27;;;;;;;;;;5020092;28;20183;-79
2023/10/15 14:16:38;;;;;;;2.30;1.20;;;;;;;;;;5014884;28;20204;-80
2023/10/15 14:19:04;;;;;;;1.50;1.10;;;;;;;;;;5010174;28;20191;-80
2023/10/15 14:21:31;;;;;;;4.90;1.20;;;;;;;;;;4987304;28;20214;-80
2023/10/15 14:23:58;;;;;;;1.83;1.20;;;;;;;;;;5012636;28;20667;-80
2023/10/15 14:26:24;;;;;;;1.77;1.10;;;;;;;;;;4989800;28;20240;-80
2023/10/15 14:28:50;;;;;;;2.27;1.00;;;;;;;;;;5017007;28;20253;-80
2023/10/15 14:31:18;;;;;;;3.27;1.50;;;;;;;;;;5010108;28;20295;-80
2023/10/15 14:33:44;;;;;;;5.53;2.27;;;;;;;;;;5014881;28;20194;-80
2023/10/15 14:36:12;;;;;;;2.60;1.60;;;;;;;;;;5014866;28;20189;-80
2023/10/15 14:38:38;;;;;;;2.47;1.30;;;;;;;;;;5015008;28;20854;-80
2023/10/15 14:41:04;;;;;;;2.63;1.30;;;;;;;;;;5007321;28;20810;-80
2023/10/15 14:43:31;;;;;;;4.27;1.40;;;;;;;;;;5003804;28;20289;-79
2023/10/15 14:45:57;;;;;;;3.70;1.20;;;;;;;;;;4975853;28;20243;-80
2023/10/15 14:48:26;;;;;;;3.33;1.30;;;;;;;;;;5005444;28;20570;-80
2023/10/15 14:50:52;;;;;;;3.67;1.30;;;;;;;;;;5001984;28;20201;-80
2023/10/15 14:53:18;;;;;;;3.77;1.40;;;;;;;;;;5015142;28;20253;-80
2023/10/15 14:55:45;;;;;;;2.07;1.40;;;;;;;;;;5006210;28;20188;-80